createdAt,value
2019-02-14T00:00:48.279Z,62.30
2019-02-14T00:02:53.441Z,62.30
2019-02-14T00:04:58.304Z,62.30
2019-02-14T00:07:03.171Z,62.30
2019-02-14T00:09:08.360Z,62.30
2019-02-14T00:11:13.617Z,62.20
2019-02-14T00:13:19.057Z,62.30
2019-02-14T00:15:23.898Z,62.20
2019-02-14T00:17:29.642Z,62.30
2019-02-14T00:19:35.180Z,62.30
2019-02-14T00:21:40.432Z,62.30
2019-02-14T00:23:45.684Z,62.20
2019-02-14T00:25:50.844Z,62.20
2019-02-14T00:27:56.492Z,62.20
2019-02-14T00:30:02.060Z,62.20
2019-02-14T00:32:07.437Z,62.20
2019-02-14T00:34:12.882Z,62.30
2019-02-14T00:36:17.830Z,61.50
2019-02-14T00:38:22.796Z,62.20
2019-02-14T00:40:28.144Z,62.20
2019-02-14T00:42:33.282Z,62.80
2019-02-14T00:44:38.444Z,62.30
2019-02-14T00:46:43.599Z,62.30
2019-02-14T00:48:48.844Z,62.40
2019-02-14T00:50:54.010Z,62.40
2019-02-14T00:52:59.103Z,62.50
2019-02-14T00:55:04.637Z,62.40
2019-02-14T00:57:09.947Z,62.40
2019-02-14T00:59:15.126Z,62.50
2019-02-14T01:01:20.582Z,62.40
2019-02-14T01:03:25.461Z,62.40
2019-02-14T01:05:33.636Z,62.40
2019-02-14T01:07:36.863Z,62.50
2019-02-14T01:09:42.220Z,62.50
2019-02-14T01:11:47.715Z,62.50
2019-02-14T01:13:53.199Z,62.60
2019-02-14T01:15:58.511Z,62.60
2019-02-14T01:18:04.059Z,62.50
2019-02-14T01:20:09.168Z,62.70
2019-02-14T01:22:14.396Z,62.60
2019-02-14T01:24:19.615Z,63.60
2019-02-14T01:26:24.484Z,62.70
2019-02-14T01:28:29.578Z,62.60
2019-02-14T01:30:34.884Z,62.70
2019-02-14T01:32:40.055Z,62.70
2019-02-14T01:34:44.911Z,62.80
2019-02-14T01:36:50.146Z,62.90
2019-02-14T01:38:55.396Z,63.00
2019-02-14T01:41:00.878Z,62.80
2019-02-14T01:43:06.717Z,62.70
2019-02-14T01:45:12.256Z,63.40
2019-02-14T01:47:17.993Z,62.70
2019-02-14T01:49:22.876Z,62.70
2019-02-14T01:51:28.154Z,62.80
2019-02-14T01:53:33.334Z,62.80
2019-02-14T01:55:38.558Z,62.80
2019-02-14T01:57:43.733Z,63.00
2019-02-14T01:59:49.218Z,62.90
2019-02-14T02:01:58.175Z,63.80
2019-02-14T02:04:16.936Z,63.00
2019-02-14T02:06:24.624Z,63.00
2019-02-14T02:08:33.223Z,63.00
2019-02-14T02:10:38.206Z,63.00
2019-02-14T02:12:43.642Z,62.90
2019-02-14T02:14:49.094Z,63.00
2019-02-14T02:16:54.903Z,62.90
2019-02-14T02:19:00.423Z,62.80
2019-02-14T02:21:05.781Z,62.80
2019-02-14T02:23:10.945Z,62.80
2019-02-14T02:25:16.438Z,62.90
2019-02-14T02:27:21.460Z,62.80
2019-02-14T02:29:27.012Z,62.80
2019-02-14T02:31:31.846Z,62.80
2019-02-14T02:33:37.446Z,62.80
2019-02-14T02:35:42.987Z,62.80
2019-02-14T02:37:48.137Z,62.90
2019-02-14T02:39:53.285Z,62.70
2019-02-14T02:41:58.199Z,62.60
2019-02-14T02:44:03.108Z,62.60
2019-02-14T02:46:08.555Z,62.60
2019-02-14T02:48:13.936Z,62.70
2019-02-14T02:50:19.454Z,62.60
2019-02-14T02:52:25.170Z,62.90
2019-02-14T02:54:29.993Z,62.80
2019-02-14T02:56:35.353Z,62.80
2019-02-14T02:58:40.891Z,62.80
2019-02-14T03:00:47.685Z,62.90
2019-02-14T03:02:55.555Z,62.70
2019-02-14T03:05:00.760Z,62.80
2019-02-14T03:07:06.269Z,62.80
2019-02-14T03:09:11.291Z,62.70
2019-02-14T03:11:16.441Z,62.80
2019-02-14T03:13:21.571Z,62.90
2019-02-14T03:15:27.142Z,63.00
2019-02-14T03:17:32.301Z,63.00
2019-02-14T03:19:37.854Z,63.00
2019-02-14T03:21:43.284Z,63.00
2019-02-14T03:23:48.480Z,62.80
2019-02-14T03:25:53.927Z,62.80
2019-02-14T03:27:59.451Z,62.70
2019-02-14T03:30:05.661Z,62.60
2019-02-14T03:32:10.918Z,62.70
2019-02-14T03:34:16.374Z,62.70
2019-02-14T03:36:21.471Z,62.70
2019-02-14T03:38:26.739Z,62.70
2019-02-14T03:40:31.649Z,62.70
2019-02-14T03:42:36.743Z,62.70
2019-02-14T03:44:41.846Z,62.70
2019-02-14T03:46:49.452Z,62.70
2019-02-14T03:48:56.176Z,62.70
2019-02-14T03:51:01.233Z,62.70
2019-02-14T03:53:07.784Z,62.70
2019-02-14T03:55:12.945Z,62.70
2019-02-14T03:57:17.891Z,62.60
2019-02-14T03:59:23.438Z,62.80
2019-02-14T04:01:28.531Z,62.90
2019-02-14T04:03:33.373Z,62.60
2019-02-14T04:05:38.788Z,62.60
2019-02-14T04:07:43.838Z,62.80
2019-02-14T04:09:49.332Z,62.90
2019-02-14T04:11:54.269Z,62.90
2019-02-14T04:13:59.704Z,62.90
2019-02-14T04:16:04.641Z,63.50
2019-02-14T04:18:09.560Z,62.60
2019-02-14T04:22:18.516Z,62.60
2019-02-14T04:24:23.953Z,62.30
2019-02-14T04:26:28.891Z,62.40
2019-02-14T04:28:34.090Z,62.30
2019-02-14T04:30:39.803Z,62.40
2019-02-14T04:32:44.889Z,62.50
2019-02-14T04:34:49.978Z,62.50
2019-02-14T04:36:55.848Z,62.40
2019-02-14T04:39:02.171Z,62.30
2019-02-14T04:41:07.924Z,62.30
2019-02-14T04:43:12.835Z,62.30
2019-02-14T04:45:17.826Z,62.40
2019-02-14T04:47:22.684Z,62.30
2019-02-14T04:49:27.922Z,62.40
2019-02-14T04:51:33.089Z,62.40
2019-02-14T04:53:38.230Z,62.50
2019-02-14T04:55:43.181Z,62.70
2019-02-14T04:57:48.344Z,62.80
2019-02-14T04:59:53.193Z,62.80
2019-02-14T05:01:58.553Z,62.70
2019-02-14T05:04:03.381Z,62.70
2019-02-14T05:06:08.542Z,62.70
2019-02-14T05:08:13.525Z,62.70
2019-02-14T05:10:18.870Z,62.80
2019-02-14T05:12:24.217Z,62.90
2019-02-14T05:14:29.043Z,62.90
2019-02-14T05:16:34.133Z,62.80
2019-02-14T05:18:39.350Z,62.80
2019-02-14T05:20:45.073Z,62.90
2019-02-14T05:22:50.304Z,62.80
2019-02-14T05:24:55.374Z,62.80
2019-02-14T05:27:00.204Z,62.90
2019-02-14T05:29:05.549Z,63.00
2019-02-14T05:31:10.460Z,63.20
2019-02-14T05:33:15.642Z,63.20
2019-02-14T05:35:21.097Z,63.20
2019-02-14T05:37:26.413Z,63.20
2019-02-14T05:39:32.238Z,63.20
2019-02-14T05:41:37.947Z,63.20
2019-02-14T05:43:43.153Z,63.50
2019-02-14T05:45:48.086Z,63.30
2019-02-14T05:47:53.173Z,63.30
2019-02-14T05:49:58.413Z,63.30
2019-02-14T05:52:03.289Z,63.30
2019-02-14T05:54:08.375Z,63.20
2019-02-14T05:56:13.470Z,63.10
2019-02-14T05:58:18.707Z,63.00
2019-02-14T06:00:23.882Z,62.90
2019-02-14T06:02:29.262Z,62.70
2019-02-14T06:04:34.234Z,62.80
2019-02-14T06:06:39.427Z,62.60
2019-02-14T06:08:44.881Z,62.60
2019-02-14T06:10:50.032Z,62.50
2019-02-14T06:12:55.315Z,62.60
2019-02-14T06:15:00.293Z,62.60
2019-02-14T06:17:05.901Z,62.80
2019-02-14T06:19:11.049Z,62.70
2019-02-14T06:21:16.214Z,62.60
2019-02-14T06:23:21.458Z,62.40
2019-02-14T06:25:26.927Z,62.20
2019-02-14T06:27:32.050Z,62.10
2019-02-14T06:29:37.232Z,62.10
2019-02-14T06:31:42.911Z,62.20
2019-02-14T06:33:48.680Z,62.30
2019-02-14T06:35:53.917Z,62.40
2019-02-14T06:38:00.141Z,62.60
2019-02-14T06:40:06.192Z,62.70
2019-02-14T06:42:11.435Z,62.80
2019-02-14T06:44:16.310Z,63.00
2019-02-14T06:46:21.930Z,63.00
2019-02-14T06:48:27.397Z,63.10
2019-02-14T06:50:34.729Z,63.00
2019-02-14T06:52:40.430Z,62.90
2019-02-14T06:54:45.825Z,63.10
2019-02-14T06:56:50.954Z,63.10
2019-02-14T06:58:56.153Z,63.10
2019-02-14T07:01:01.296Z,62.90
2019-02-14T07:03:06.162Z,63.10
2019-02-14T07:05:11.260Z,62.90
2019-02-14T07:07:18.656Z,63.00
2019-02-14T07:09:23.211Z,63.00
2019-02-14T07:11:28.137Z,63.10
2019-02-14T07:13:33.001Z,63.20
2019-02-14T07:15:38.377Z,63.20
2019-02-14T07:17:43.640Z,63.40
2019-02-14T07:19:49.095Z,63.30
2019-02-14T07:21:54.272Z,63.30
2019-02-14T07:23:59.640Z,63.20
2019-02-14T07:26:04.757Z,63.20
2019-02-14T07:28:09.600Z,63.20
2019-02-14T07:30:17.499Z,63.10
2019-02-14T07:32:22.651Z,63.20
2019-02-14T07:34:27.817Z,63.30
2019-02-14T07:36:33.593Z,63.40
2019-02-14T07:38:39.059Z,63.50
2019-02-14T07:40:44.316Z,63.60
2019-02-14T07:42:50.067Z,63.70
2019-02-14T07:44:55.666Z,63.70
2019-02-14T07:47:01.122Z,63.80
2019-02-14T07:49:06.086Z,63.90
2019-02-14T07:51:11.212Z,63.90
2019-02-14T07:53:16.488Z,64.00
2019-02-14T07:55:21.816Z,64.20
2019-02-14T07:57:26.694Z,64.30
2019-02-14T07:59:32.059Z,64.30
2019-02-14T08:01:37.582Z,64.50
2019-02-14T08:03:42.838Z,64.30
2019-02-14T08:05:47.934Z,64.40
2019-02-14T08:07:52.859Z,64.50
2019-02-14T08:09:57.996Z,64.50
2019-02-14T08:12:02.909Z,64.70
2019-02-14T08:14:07.915Z,64.60
2019-02-14T08:16:13.095Z,64.50
2019-02-14T08:18:17.991Z,64.60
2019-02-14T08:20:22.903Z,64.40
2019-02-14T08:22:28.935Z,64.30
2019-02-14T08:24:34.224Z,64.40
2019-02-14T08:26:39.427Z,64.50
2019-02-14T08:28:44.868Z,64.40
2019-02-14T08:30:50.552Z,64.30
2019-02-14T08:32:55.407Z,64.10
2019-02-14T08:35:00.854Z,64.20
2019-02-14T08:37:06.010Z,64.20
2019-02-14T08:39:11.235Z,64.20
2019-02-14T08:41:16.715Z,64.20
2019-02-14T08:43:22.489Z,64.30
2019-02-14T08:45:27.783Z,64.30
2019-02-14T08:47:33.466Z,64.40
2019-02-14T08:49:38.397Z,64.60
2019-02-14T08:51:43.270Z,64.70
2019-02-14T08:53:48.757Z,64.80
2019-02-14T08:55:53.934Z,65.00
2019-02-14T08:57:59.377Z,65.10
2019-02-14T09:00:05.453Z,65.20
2019-02-14T09:02:10.701Z,65.20
2019-02-14T09:04:16.169Z,65.20
2019-02-14T09:06:21.399Z,65.00
2019-02-14T09:08:26.876Z,64.80
2019-02-14T09:10:31.744Z,65.10
2019-02-14T09:12:36.916Z,65.20
2019-02-14T09:14:41.772Z,65.90
2019-02-14T09:16:47.001Z,65.60
2019-02-14T09:18:52.130Z,65.80
2019-02-14T09:20:57.542Z,66.00
2019-02-14T09:23:02.394Z,66.00
2019-02-14T09:25:07.656Z,65.90
2019-02-14T09:27:12.884Z,65.90
2019-02-14T09:29:18.296Z,66.00
2019-02-14T09:31:23.766Z,66.20
2019-02-14T09:33:29.235Z,66.30
2019-02-14T09:35:34.381Z,66.30
2019-02-14T09:37:39.936Z,66.20
2019-02-14T09:39:45.202Z,66.30
2019-02-14T09:41:50.657Z,66.50
2019-02-14T09:43:56.310Z,66.50
2019-02-14T09:46:01.485Z,66.60
2019-02-14T09:48:07.011Z,66.80
2019-02-14T09:50:13.138Z,66.80
2019-02-14T09:52:18.016Z,66.70
2019-02-14T09:54:23.446Z,66.50
2019-02-14T09:56:28.273Z,66.60
2019-02-14T09:58:33.646Z,66.80
2019-02-14T10:00:39.081Z,66.80
2019-02-14T10:02:44.074Z,66.90
2019-02-14T10:04:50.048Z,67.10
2019-02-14T10:06:54.858Z,67.60
2019-02-14T10:09:00.751Z,67.80
2019-02-14T10:11:06.066Z,68.00
2019-02-14T10:13:11.269Z,67.80
2019-02-14T10:15:16.398Z,67.70
2019-02-14T10:17:22.455Z,67.70
2019-02-14T10:19:28.754Z,67.30
2019-02-14T10:21:34.399Z,67.30
2019-02-14T10:23:39.576Z,67.00
2019-02-14T10:25:44.739Z,66.80
2019-02-14T10:27:50.309Z,67.30
2019-02-14T10:29:55.233Z,67.60
2019-02-14T10:32:00.699Z,66.90
2019-02-14T10:34:05.635Z,66.70
2019-02-14T10:36:10.500Z,66.70
2019-02-14T10:38:22.053Z,66.40
2019-02-14T10:40:22.328Z,66.50
2019-02-14T10:42:27.472Z,66.20
2019-02-14T10:44:32.332Z,65.80
2019-02-14T10:46:37.178Z,65.50
2019-02-14T10:48:42.634Z,65.10
2019-02-14T10:50:47.491Z,64.80
2019-02-14T10:52:52.890Z,64.40
2019-02-14T10:54:57.708Z,64.30
2019-02-14T10:57:03.246Z,64.30
2019-02-14T10:59:08.934Z,64.10
2019-02-14T11:01:14.566Z,63.70
2019-02-14T11:03:19.821Z,63.70
2019-02-14T11:05:24.732Z,63.30
2019-02-14T11:07:29.958Z,63.20
2019-02-14T11:09:35.186Z,63.20
2019-02-14T11:11:40.637Z,63.00
2019-02-14T11:13:45.870Z,62.80
2019-02-14T11:15:50.810Z,61.60
2019-02-14T11:17:56.641Z,61.50
2019-02-14T11:20:01.607Z,61.80
2019-02-14T11:22:07.030Z,62.00
2019-02-14T11:24:12.491Z,62.00
2019-02-14T11:26:17.980Z,61.90
2019-02-14T11:28:22.837Z,61.70
2019-02-14T11:30:28.258Z,61.60
2019-02-14T11:32:33.445Z,60.90
2019-02-14T11:34:39.025Z,60.60
2019-02-14T11:36:44.147Z,60.40
2019-02-14T11:38:49.389Z,60.30
2019-02-14T11:40:54.352Z,60.50
2019-02-14T11:43:00.025Z,60.30
2019-02-14T11:45:06.169Z,60.40
2019-02-14T11:47:11.041Z,60.20
2019-02-14T11:49:15.972Z,60.10
2019-02-14T11:51:21.123Z,60.00
2019-02-14T11:53:26.512Z,59.70
2019-02-14T11:55:32.153Z,59.70
2019-02-14T11:57:37.801Z,59.90
2019-02-14T11:59:43.327Z,59.70
2019-02-14T12:01:55.126Z,59.40
2019-02-14T12:03:55.720Z,59.20
2019-02-14T12:06:01.179Z,59.10
2019-02-14T12:08:06.762Z,58.80
2019-02-14T12:10:13.834Z,58.70
2019-02-14T12:12:20.744Z,58.60
2019-02-14T12:14:25.997Z,58.30
2019-02-14T12:16:31.354Z,57.80
2019-02-14T12:18:36.284Z,57.60
2019-02-14T12:20:41.445Z,57.50
2019-02-14T12:22:47.392Z,57.20
2019-02-14T12:24:52.384Z,57.20
2019-02-14T12:26:57.913Z,57.00
2019-02-14T12:29:02.827Z,56.90
2019-02-14T12:31:08.073Z,56.70
2019-02-14T12:33:13.568Z,56.60
2019-02-14T12:35:18.681Z,56.40
2019-02-14T12:37:23.832Z,56.30
2019-02-14T12:39:28.779Z,56.40
2019-02-14T12:41:34.323Z,57.20
2019-02-14T12:43:39.597Z,56.50
2019-02-14T12:45:44.720Z,56.40
2019-02-14T12:47:49.646Z,56.50
2019-02-14T12:49:55.363Z,56.20
2019-02-14T12:52:00.217Z,56.10
2019-02-14T12:54:05.137Z,56.20
2019-02-14T12:56:10.240Z,56.20
2019-02-14T12:58:15.811Z,56.10
2019-02-14T13:00:21.847Z,56.20
2019-02-14T13:02:26.707Z,56.10
2019-02-14T13:04:32.539Z,56.10
2019-02-14T13:06:37.699Z,56.10
2019-02-14T13:08:43.162Z,56.20
2019-02-14T13:10:48.318Z,56.00
2019-02-14T13:12:53.775Z,55.90
2019-02-14T13:14:58.740Z,56.00
2019-02-14T13:17:04.318Z,55.90
2019-02-14T13:19:09.850Z,55.90
2019-02-14T13:21:15.207Z,56.10
2019-02-14T13:23:20.077Z,55.90
2019-02-14T13:25:25.408Z,55.90
2019-02-14T13:27:30.754Z,56.00
2019-02-14T13:29:36.064Z,55.90
2019-02-14T13:31:41.383Z,55.80
2019-02-14T13:33:46.645Z,55.90
2019-02-14T13:35:51.925Z,55.80
2019-02-14T13:37:57.095Z,55.70
2019-02-14T13:40:02.329Z,55.80
2019-02-14T13:42:07.731Z,55.80
2019-02-14T13:44:12.569Z,56.00
2019-02-14T13:46:17.912Z,56.10
2019-02-14T13:48:23.489Z,56.20
2019-02-14T13:50:28.398Z,56.40
2019-02-14T13:52:33.268Z,56.30
2019-02-14T13:54:38.786Z,56.40
2019-02-14T13:56:43.952Z,56.20
2019-02-14T13:58:49.298Z,56.30
2019-02-14T14:00:55.615Z,55.80
2019-02-14T14:03:00.445Z,56.50
2019-02-14T14:05:06.339Z,56.60
2019-02-14T14:07:11.440Z,56.80
2019-02-14T14:09:16.271Z,56.90
2019-02-14T14:11:21.406Z,57.00
2019-02-14T14:13:26.272Z,57.20
2019-02-14T14:15:31.752Z,57.30
2019-02-14T14:17:37.052Z,57.30
2019-02-14T14:19:42.577Z,57.40
2019-02-14T14:21:47.525Z,57.60
2019-02-14T14:23:52.771Z,57.70
2019-02-14T14:25:57.949Z,57.70
2019-02-14T14:28:04.208Z,57.60
2019-02-14T14:30:10.148Z,57.70
2019-02-14T14:32:15.068Z,57.70
2019-02-14T14:34:20.489Z,57.70
2019-02-14T14:36:25.526Z,57.80
2019-02-14T14:38:30.678Z,57.80
2019-02-14T14:40:36.276Z,57.80
2019-02-14T14:43:00.858Z,57.80
2019-02-14T14:45:08.446Z,58.30
2019-02-14T14:47:19.223Z,57.60
2019-02-14T14:49:24.814Z,57.60
2019-02-14T14:51:29.674Z,57.40
2019-02-14T14:53:34.815Z,57.30
2019-02-14T14:55:39.949Z,57.20
2019-02-14T14:57:45.116Z,57.00
2019-02-14T14:59:50.578Z,56.90
2019-02-14T15:01:55.433Z,57.00
2019-02-14T15:04:00.300Z,56.80
2019-02-14T15:06:05.157Z,56.90
2019-02-14T15:08:10.359Z,56.90
2019-02-14T15:10:15.882Z,56.80
2019-02-14T15:12:21.392Z,56.70
2019-02-14T15:14:26.740Z,56.80
2019-02-14T15:16:31.910Z,56.80
2019-02-14T15:18:37.468Z,56.70
2019-02-14T15:20:43.529Z,56.70
2019-02-14T15:22:48.370Z,56.90
2019-02-14T15:24:54.096Z,56.90
2019-02-14T15:26:59.305Z,56.90
2019-02-14T15:29:04.953Z,57.10
2019-02-14T15:31:10.730Z,57.00
2019-02-14T15:33:15.674Z,57.10
2019-02-14T15:35:20.853Z,57.10
2019-02-14T15:37:26.128Z,57.20
2019-02-14T15:39:31.354Z,57.50
2019-02-14T15:41:36.257Z,57.80
2019-02-14T15:43:41.259Z,57.20
2019-02-14T15:45:46.799Z,57.20
2019-02-14T15:47:52.242Z,57.20
2019-02-14T15:49:57.094Z,57.20
2019-02-14T15:52:03.844Z,57.20
2019-02-14T15:54:10.014Z,57.20
2019-02-14T15:56:15.670Z,57.20
2019-02-14T15:58:20.824Z,57.20
2019-02-14T16:00:25.666Z,57.30
2019-02-14T16:02:33.048Z,57.40
2019-02-14T16:04:37.579Z,57.30
2019-02-14T16:06:43.600Z,57.50
2019-02-14T16:08:48.963Z,57.40
2019-02-14T16:10:55.898Z,57.50
2019-02-14T16:13:00.879Z,58.30
2019-02-14T16:15:09.010Z,58.30
2019-02-14T16:17:13.806Z,58.30
2019-02-14T16:19:18.690Z,58.30
2019-02-14T16:21:23.734Z,58.30
2019-02-14T16:23:53.134Z,58.30
2019-02-14T16:25:58.817Z,57.30
2019-02-14T16:28:04.474Z,58.40
2019-02-14T16:30:10.610Z,59.20
2019-02-14T16:32:15.520Z,58.60
2019-02-14T16:34:21.083Z,58.70
2019-02-14T16:36:26.404Z,58.70
2019-02-14T16:38:32.981Z,58.70
2019-02-14T16:40:38.878Z,58.50
2019-02-14T16:42:44.629Z,58.50
2019-02-14T16:44:49.541Z,58.50
2019-02-14T16:46:54.594Z,58.50
2019-02-14T16:48:59.855Z,58.40
2019-02-14T16:51:05.660Z,58.60
2019-02-14T16:53:11.208Z,58.60
2019-02-14T16:55:16.367Z,59.20
2019-02-14T16:57:21.627Z,58.50
2019-02-14T16:59:26.807Z,58.40
2019-02-14T17:01:31.973Z,58.50
2019-02-14T17:03:37.811Z,58.40
2019-02-14T17:05:42.831Z,58.40
2019-02-14T17:07:48.364Z,58.30
2019-02-14T17:09:53.883Z,58.40
2019-02-14T17:11:59.346Z,58.50
2019-02-14T17:14:04.840Z,58.50
2019-02-14T17:16:10.225Z,58.50
2019-02-14T17:18:15.840Z,58.50
2019-02-14T17:20:21.073Z,58.50
2019-02-14T17:22:26.031Z,58.60
2019-02-14T17:24:31.184Z,58.60
2019-02-14T17:26:36.158Z,58.60
2019-02-14T17:28:41.311Z,58.60
2019-02-14T17:30:46.901Z,58.70
2019-02-14T17:32:51.808Z,58.70
2019-02-14T17:34:57.734Z,58.80
2019-02-14T17:37:02.645Z,58.80
2019-02-14T17:39:07.770Z,58.70
2019-02-14T17:41:13.058Z,58.60
2019-02-14T17:43:18.062Z,58.50
2019-02-14T17:45:24.116Z,58.60
2019-02-14T17:47:29.722Z,58.60
2019-02-14T17:49:35.024Z,58.70
2019-02-14T17:51:39.938Z,58.60
2019-02-14T17:53:45.207Z,58.70
2019-02-14T17:55:50.539Z,58.80
2019-02-14T17:57:56.003Z,58.80
2019-02-14T18:00:01.557Z,58.80
2019-02-14T18:02:06.804Z,59.40
2019-02-14T18:04:11.984Z,58.80
2019-02-14T18:06:16.932Z,58.90
2019-02-14T18:08:22.066Z,58.90
2019-02-14T18:10:27.549Z,59.00
2019-02-14T18:12:32.887Z,59.00
2019-02-14T18:14:38.255Z,59.00
2019-02-14T18:16:43.904Z,58.90
2019-02-14T18:18:49.237Z,58.90
2019-02-14T18:20:54.439Z,58.90
2019-02-14T18:22:59.354Z,58.90
2019-02-14T18:25:05.672Z,59.20
2019-02-14T18:27:11.027Z,59.00
2019-02-14T18:29:15.889Z,58.90
2019-02-14T18:31:20.816Z,58.90
2019-02-14T18:33:26.166Z,58.90
2019-02-14T18:35:31.315Z,59.70
2019-02-14T18:37:36.760Z,59.00
2019-02-14T18:39:41.913Z,58.80
2019-02-14T18:41:47.492Z,58.90
2019-02-14T18:43:52.360Z,58.90
2019-02-14T18:45:57.729Z,58.90
2019-02-14T18:48:03.061Z,58.90
2019-02-14T18:50:09.073Z,58.90
2019-02-14T18:52:13.942Z,58.80
2019-02-14T18:54:18.959Z,58.80
2019-02-14T18:56:23.874Z,58.80
2019-02-14T18:58:29.070Z,58.80
2019-02-14T19:00:34.018Z,58.90
2019-02-14T19:02:39.419Z,58.90
2019-02-14T19:04:45.802Z,58.90
2019-02-14T19:06:51.463Z,59.00
2019-02-14T19:08:56.732Z,59.00
2019-02-14T19:11:01.796Z,58.90
2019-02-14T19:13:06.888Z,58.90
2019-02-14T19:15:12.438Z,59.00
2019-02-14T19:17:17.372Z,59.10
2019-02-14T19:19:22.531Z,59.20
2019-02-14T19:21:27.972Z,59.20
2019-02-14T19:23:33.530Z,59.00
2019-02-14T19:25:38.705Z,59.10
2019-02-14T19:27:44.101Z,59.10
2019-02-14T19:29:49.289Z,59.20
2019-02-14T19:31:54.191Z,59.10
2019-02-14T19:33:59.180Z,59.00
2019-02-14T19:36:04.439Z,58.80
2019-02-14T19:38:09.787Z,58.90
2019-02-14T19:40:14.780Z,58.90
2019-02-14T19:42:20.133Z,59.00
2019-02-14T19:44:25.436Z,59.00
2019-02-14T19:46:30.930Z,59.10
2019-02-14T19:48:36.405Z,59.00
2019-02-14T19:50:41.700Z,59.10
2019-02-14T19:52:46.888Z,59.20
2019-02-14T19:54:52.581Z,59.00
2019-02-14T19:56:57.546Z,59.00
2019-02-14T19:59:02.469Z,59.10
2019-02-14T20:01:08.023Z,59.10
2019-02-14T20:03:13.222Z,59.00
2019-02-14T20:05:18.546Z,59.00
2019-02-14T20:07:23.696Z,59.00
2019-02-14T20:09:28.658Z,59.00
2019-02-14T20:11:36.747Z,59.60
2019-02-14T20:13:49.157Z,59.20
2019-02-14T20:15:47.712Z,59.20
2019-02-14T20:17:53.019Z,59.10
2019-02-14T20:19:58.339Z,59.10
2019-02-14T20:22:04.050Z,59.30
2019-02-14T20:24:09.214Z,59.30
2019-02-14T20:26:14.674Z,59.30
2019-02-14T20:28:19.620Z,59.30
2019-02-14T20:30:24.783Z,59.30
2019-02-14T20:32:29.655Z,59.30
2019-02-14T20:34:34.538Z,59.50
2019-02-14T20:36:39.568Z,59.40
2019-02-14T20:38:44.483Z,59.30
2019-02-14T20:40:49.771Z,59.40
2019-02-14T20:42:55.463Z,59.40
2019-02-14T20:45:00.647Z,59.50
2019-02-14T20:47:05.636Z,59.50
2019-02-14T20:49:10.857Z,59.50
2019-02-14T20:51:15.859Z,60.10
2019-02-14T20:53:21.053Z,59.40
2019-02-14T20:55:26.026Z,59.40
2019-02-14T20:57:31.259Z,59.50
2019-02-14T20:59:37.045Z,59.60
2019-02-14T21:01:42.102Z,59.50
2019-02-14T21:03:47.356Z,60.30
2019-02-14T21:05:52.729Z,60.60
2019-02-14T21:07:58.047Z,60.50
2019-02-14T21:10:03.173Z,60.20
2019-02-14T21:12:08.645Z,60.00
2019-02-14T21:14:13.796Z,59.90
2019-02-14T21:16:18.634Z,59.90
2019-02-14T21:18:24.121Z,59.90
2019-02-14T21:20:29.173Z,60.00
2019-02-14T21:22:34.342Z,59.90
2019-02-14T21:24:39.230Z,59.90
2019-02-14T21:26:44.249Z,60.00
2019-02-14T21:28:49.132Z,59.90
2019-02-14T21:30:54.029Z,60.00
2019-02-14T21:32:59.362Z,59.90
2019-02-14T21:35:04.378Z,60.30
2019-02-14T21:37:09.258Z,59.80
2019-02-14T21:39:14.225Z,59.60
2019-02-14T21:41:19.236Z,59.70
2019-02-14T21:43:24.158Z,59.60
2019-02-14T21:45:29.959Z,59.60
2019-02-14T21:47:34.875Z,59.80
2019-02-14T21:49:39.821Z,59.90
2019-02-14T21:51:45.150Z,60.10
2019-02-14T21:53:50.196Z,60.10
2019-02-14T21:55:55.396Z,60.10
2019-02-14T21:58:04.087Z,60.20
2019-02-14T22:00:11.325Z,60.30
2019-02-14T22:02:16.675Z,60.30
2019-02-14T22:04:22.128Z,60.30
2019-02-14T22:06:27.038Z,60.30
2019-02-14T22:08:32.004Z,60.40
2019-02-14T22:10:37.804Z,60.40
2019-02-14T22:12:44.088Z,60.40
2019-02-14T22:14:49.689Z,60.40
2019-02-14T22:16:54.550Z,60.20
2019-02-14T22:19:00.492Z,60.30
2019-02-14T22:21:06.192Z,60.40
2019-02-14T22:23:11.585Z,60.40
2019-02-14T22:25:16.520Z,60.40
2019-02-14T22:27:21.743Z,60.30
2019-02-14T22:29:26.921Z,60.50
2019-02-14T22:31:32.291Z,60.30
2019-02-14T22:33:38.097Z,60.40
2019-02-14T22:35:44.129Z,60.40
2019-02-14T22:37:49.133Z,60.60
2019-02-14T22:39:54.420Z,60.50
2019-02-14T22:42:00.119Z,60.70
2019-02-14T22:44:05.460Z,60.60
2019-02-14T22:46:10.804Z,60.60
2019-02-14T22:48:16.270Z,60.70
2019-02-14T22:50:21.214Z,60.70
2019-02-14T22:52:26.492Z,60.80
2019-02-14T22:54:31.749Z,60.70
2019-02-14T22:56:37.183Z,60.90
2019-02-14T22:58:42.340Z,61.60
2019-02-14T23:00:57.317Z,60.90
2019-02-14T23:03:02.727Z,61.80
2019-02-14T23:05:08.582Z,60.80
2019-02-14T23:07:14.211Z,60.80
2019-02-14T23:09:19.860Z,60.90
2019-02-14T23:11:25.152Z,61.00
2019-02-14T23:13:30.101Z,61.00
2019-02-14T23:15:35.220Z,61.10
2019-02-14T23:17:40.910Z,61.10
2019-02-14T23:19:46.119Z,61.00
2019-02-14T23:21:51.336Z,61.30
2019-02-14T23:23:56.568Z,61.20
2019-02-14T23:26:01.414Z,61.30
2019-02-14T23:28:06.408Z,61.30
2019-02-14T23:30:11.988Z,61.20
2019-02-14T23:32:17.167Z,61.20
2019-02-14T23:34:22.412Z,61.20
2019-02-14T23:36:27.925Z,61.20
2019-02-14T23:38:33.034Z,61.20
2019-02-14T23:40:38.601Z,61.20
2019-02-14T23:42:43.801Z,61.20
2019-02-14T23:44:48.732Z,61.20
2019-02-14T23:46:53.994Z,61.20
2019-02-14T23:48:59.684Z,61.30
2019-02-14T23:51:04.724Z,61.50
2019-02-14T23:53:09.651Z,61.40
2019-02-14T23:55:14.769Z,61.50
2019-02-14T23:57:20.238Z,61.40
2019-02-14T23:59:25.707Z,61.40
